Time;durP1;ratioP1;P1;durP2;ratioP2;P2;SDS_P1;SDS_P2;PMS_P1;PMS_P2;Temp;Humidity;BMP_temperature;BMP_pressure;BME280_temperature;BME280_humidity;BME280_pressure;Samples;Min_cycle;Max_cycle;Signal;HPM_P1;HPM_P2
2021/12/11 00:01:51;;;;;;;14.43;12.02;;;-14.20;75.50;-15.50;100046.00;;;;4955832;28;91489;-60
2021/12/11 00:04:31;;;;;;;14.88;11.90;;;-14.20;75.50;-15.50;100040.00;;;;4974267;28;95574;-59
2021/12/11 00:07:02;;;;;;;14.20;11.80;;;-14.30;75.20;-15.50;100052.00;;;;4958474;28;92033;-57
2021/12/11 00:10:17;;;;;;;14.57;12.10;;;-14.30;75.30;-15.60;100046.00;;;;4970990;28;93238;-62
2021/12/11 00:12:54;;;;;;;13.40;11.43;;;-14.30;75.30;-15.60;100037.00;;;;4950725;28;92236;-62
2021/12/11 00:15:28;;;;;;;15.52;12.02;;;-14.30;75.40;-15.60;100042.00;;;;4977276;28;92754;-56
2021/12/11 00:18:02;;;;;;;15.15;11.40;;;-14.40;75.20;-15.60;100038.00;;;;4993845;28;93567;-58
2021/12/11 00:20:33;;;;;;;15.25;11.82;;;-14.40;74.90;-15.60;100043.00;;;;4978493;28;91974;-57
2021/12/11 00:23:02;;;;;;;14.90;11.55;;;-14.40;75.00;-15.70;100047.00;;;;4971699;28;92054;-58
2021/12/11 00:25:29;;;;;;;15.18;11.52;;;-14.40;74.70;-15.70;100030.00;;;;4978191;28;92591;-59
2021/12/11 00:28:07;;;;;;;14.02;11.30;;;-14.40;74.60;-15.80;100040.00;;;;4977706;28;93218;-59
2021/12/11 00:30:40;;;;;;;12.88;11.25;;;-14.50;74.40;-15.80;100022.00;;;;4977625;28;92264;-58
2021/12/11 00:33:35;;;;;;;14.90;11.00;;;-14.50;74.30;-15.80;100044.00;;;;4978458;28;91889;-57
2021/12/11 00:36:14;;;;;;;13.77;10.68;;;-14.60;74.30;-15.80;100037.00;;;;4975565;28;94625;-58
2021/12/11 00:38:41;;;;;;;13.40;10.38;;;-14.60;74.40;-15.90;100048.00;;;;4993298;28;93338;-57
2021/12/11 00:41:12;;;;;;;14.30;11.73;;;-14.60;74.40;-15.90;100029.00;;;;4978135;28;91985;-57
2021/12/11 00:43:41;;;;;;;12.52;10.50;;;-14.70;74.00;-16.00;100029.00;;;;4977175;28;92034;-56
2021/12/11 00:46:12;;;;;;;15.27;11.52;;;-14.70;74.00;-16.00;100039.00;;;;4977389;28;94073;-57
2021/12/11 00:48:38;;;;;;;14.75;11.88;;;-14.70;74.30;-16.00;100036.00;;;;4981191;28;92324;-61
2021/12/11 00:51:11;;;;;;;16.60;11.85;;;-14.70;74.30;-16.00;100038.00;;;;4982058;28;92004;-59
2021/12/11 00:53:47;;;;;;;15.20;11.07;;;-14.80;74.30;-16.10;100024.00;;;;4982236;28;91430;-58
2021/12/11 00:56:19;;;;;;;20.88;12.60;;;-14.80;74.10;-16.00;100038.00;;;;4986443;28;93987;-58
2021/12/11 00:58:50;;;;;;;14.77;11.05;;;-14.80;74.20;-16.10;100032.00;;;;4960652;28;92343;-58
2021/12/11 01:01:47;;;;;;;14.57;11.23;;;-14.80;74.30;-16.10;100038.00;;;;4960961;28;93342;-56
2021/12/11 01:04:20;;;;;;;15.23;12.55;;;-14.80;74.40;-16.10;100029.00;;;;4957651;28;92215;-59
2021/12/11 01:07:17;;;;;;;14.40;11.45;;;-14.80;74.30;-16.10;100046.00;;;;4961346;28;92447;-59
2021/12/11 01:09:50;;;;;;;15.20;11.23;;;-14.80;74.40;-16.10;100041.00;;;;4975784;28;92811;-52
2021/12/11 01:12:40;;;;;;;14.07;11.48;;;-14.90;74.30;-16.10;100042.00;;;;4981459;28;92072;-57
2021/12/11 01:15:22;;;;;;;13.85;11.07;;;-14.90;74.40;-16.20;100038.00;;;;4980889;28;92043;-56
2021/12/11 01:21:00;;;;;;;15.02;12.00;;;-14.90;74.40;-16.20;100039.00;;;;4996380;28;93450;-59
2021/12/11 01:26:11;;;;;;;15.25;12.38;;;-15.00;74.30;-16.30;100050.00;;;;4961402;28;92040;-57
2021/12/11 01:28:38;;;;;;;15.63;11.48;;;-15.00;74.40;-16.30;100049.00;;;;4975985;28;95064;-60
2021/12/11 01:31:10;;;;;;;13.85;11.93;;;-15.00;74.60;-16.30;100032.00;;;;4961369;28;93265;-61
2021/12/11 01:33:37;;;;;;;16.48;11.85;;;-15.00;74.40;-16.30;100039.00;;;;4959994;28;92382;-61
2021/12/11 01:36:05;;;;;;;16.13;12.07;;;-15.00;74.40;-16.30;100035.00;;;;4961756;28;92069;-61
2021/12/11 01:38:33;;;;;;;14.90;11.80;;;-15.00;74.40;-16.30;100039.00;;;;4960411;28;93616;-57
2021/12/11 01:41:19;;;;;;;16.88;12.10;;;-15.00;74.50;-16.30;100040.00;;;;4961084;28;92036;-58
2021/12/11 01:43:51;;;;;;;15.40;12.20;;;-15.00;74.70;-16.30;100047.00;;;;4961110;28;92310;-57
2021/12/11 01:46:22;;;;;;;14.80;11.57;;;-15.00;74.40;-16.30;100052.00;;;;4961444;28;91620;-57
2021/12/11 01:48:56;;;;;;;15.40;12.00;;;-15.00;74.20;-16.30;100052.00;;;;4959943;28;92060;-56
2021/12/11 01:51:40;;;;;;;14.63;12.00;;;-15.00;74.10;-16.40;100051.00;;;;4960890;28;92316;-56
2021/12/11 01:54:18;;;;;;;17.23;11.98;;;-15.10;74.00;-16.40;100054.00;;;;4960958;28;92895;-57
2021/12/11 01:56:52;;;;;;;15.55;11.75;;;-15.10;74.20;-16.40;100054.00;;;;4960841;28;92184;-59
2021/12/11 01:59:31;;;;;;;17.02;11.77;;;-15.10;74.00;-16.30;100058.00;;;;4959655;28;91937;-58
2021/12/11 02:02:11;;;;;;;14.77;12.02;;;-15.10;74.10;-16.40;100046.00;;;;4960711;28;92303;-57
2021/12/11 02:04:43;;;;;;;13.50;11.18;;;-15.10;74.20;-16.40;100050.00;;;;4960795;28;91955;-55
2021/12/11 02:07:14;;;;;;;14.93;11.93;;;-15.10;74.00;-16.40;100047.00;;;;4960465;28;92377;-57
2021/12/11 02:09:50;;;;;;;16.05;12.52;;;-15.10;73.90;-16.40;100058.00;;;;4978825;28;95164;-57
2021/12/11 02:12:23;;;;;;;14.50;11.93;;;-15.20;73.80;-16.50;100060.00;;;;4980397;28;92948;-58
2021/12/11 02:14:55;;;;;;;16.67;12.98;;;-15.20;73.90;-16.50;100058.00;;;;4980440;28;91934;-58
2021/12/11 02:17:27;;;;;;;14.52;11.68;;;-15.20;74.10;-16.50;100047.00;;;;4979830;28;92012;-59
2021/12/11 02:19:57;;;;;;;15.15;12.35;;;-15.20;74.20;-16.50;100045.00;;;;4979468;28;93514;-59
2021/12/11 02:22:36;;;;;;;15.73;11.77;;;-15.20;74.30;-16.50;100066.00;;;;4979319;28;93986;-55
2021/12/11 02:25:09;;;;;;;15.90;12.80;;;-15.20;74.20;-16.40;100065.00;;;;4980251;28;92297;-60
2021/12/11 02:27:49;;;;;;;16.25;12.95;;;-15.10;74.50;-16.40;100059.00;;;;4980056;28;92056;-60
2021/12/11 02:30:34;;;;;;;16.10;13.55;;;-15.20;74.60;-16.40;100062.00;;;;4995462;28;92565;-56
2021/12/11 02:33:19;;;;;;;15.38;12.77;;;-15.10;74.60;-16.40;100047.00;;;;4995673;28;92772;-55
2021/12/11 02:36:01;;;;;;;17.38;13.15;;;-15.10;74.30;-16.40;100063.00;;;;4995722;28;92462;-60
2021/12/11 02:38:57;;;;;;;16.52;13.07;;;-15.10;74.20;-16.40;100058.00;;;;4979886;28;91757;-55
2021/12/11 02:41:37;;;;;;;16.30;12.65;;;-15.10;74.20;-16.50;100061.00;;;;4979614;28;92502;-57
2021/12/11 02:44:27;;;;;;;16.52;12.98;;;-15.10;74.20;-16.50;100074.00;;;;4979160;28;92451;-58
2021/12/11 02:47:02;;;;;;;18.52;12.82;;;-15.10;74.00;-16.50;100060.00;;;;4979223;28;92865;-60
2021/12/11 02:49:57;;;;;;;15.57;12.02;;;-15.20;73.60;-16.50;100063.00;;;;4979976;28;91894;-55
2021/12/11 02:52:43;;;;;;;15.52;12.32;;;-15.20;73.50;-16.50;100047.00;;;;4979287;28;92745;-54
2021/12/11 02:55:19;;;;;;;17.08;12.50;;;-15.20;73.60;-16.60;100062.00;;;;4979633;28;92309;-58
2021/12/11 02:57:55;;;;;;;14.77;12.18;;;-15.30;73.60;-16.60;100060.00;;;;4960069;28;92023;-57
2021/12/11 03:00:31;;;;;;;15.25;11.80;;;-15.30;73.70;-16.60;100051.00;;;;4960027;28;92295;-59
2021/12/11 03:03:05;;;;;;;16.27;12.82;;;-15.30;73.60;-16.60;100049.00;;;;4959888;28;93794;-57
2021/12/11 03:05:44;;;;;;;16.08;12.98;;;-15.30;73.90;-16.60;100050.00;;;;4959810;28;93729;-57
2021/12/11 03:08:17;;;;;;;16.45;12.50;;;-15.30;73.70;-16.60;100056.00;;;;4959360;28;92243;-59
2021/12/11 03:10:52;;;;;;;15.90;12.18;;;-15.40;73.10;-16.70;100059.00;;;;4958848;28;92017;-57
2021/12/11 03:13:19;;;;;;;15.40;12.13;;;-15.40;73.60;-16.70;100066.00;;;;4959012;28;94663;-55
2021/12/11 03:15:46;;;;;;;18.10;13.70;;;-15.40;73.90;-16.70;100061.00;;;;4963985;28;93665;-58
2021/12/11 03:18:13;;;;;;;17.35;13.32;;;-15.40;74.20;-16.70;100076.00;;;;4978702;28;91898;-61
2021/12/11 03:20:41;;;;;;;17.40;13.50;;;-15.40;74.20;-16.70;100078.00;;;;4978525;28;92096;-56
2021/12/11 03:23:08;;;;;;;16.02;12.95;;;-15.40;74.20;-16.70;100065.00;;;;4975514;28;93692;-57
2021/12/11 03:25:35;;;;;;;16.77;13.27;;;-15.30;74.30;-16.60;100069.00;;;;4959160;28;93450;-59
2021/12/11 03:28:04;;;;;;;18.38;14.13;;;-15.40;74.40;-16.60;100082.00;;;;4959360;28;92233;-58
2021/12/11 03:30:35;;;;;;;17.00;13.98;;;-15.40;74.30;-16.60;100081.00;;;;4975071;28;91331;-62
2021/12/11 03:33:12;;;;;;;17.40;14.20;;;-15.30;74.20;-16.60;100080.00;;;;4959324;28;93954;-59
2021/12/11 03:35:40;;;;;;;16.95;13.25;;;-15.40;74.00;-16.60;100081.00;;;;4959588;28;92327;-59
2021/12/11 03:38:09;;;;;;;15.23;12.75;;;-15.40;73.90;-16.60;100056.00;;;;4958750;28;92906;-59
2021/12/11 03:40:37;;;;;;;19.58;14.57;;;-15.40;74.10;-16.60;100074.00;;;;4959374;28;91981;-61
2021/12/11 03:43:09;;;;;;;19.85;15.20;;;-15.30;74.50;-16.60;100076.00;;;;4958291;28;91992;-58
2021/12/11 03:45:39;;;;;;;18.55;14.85;;;-15.30;74.60;-16.60;100070.00;;;;4959087;28;92402;-57
2021/12/11 03:48:18;;;;;;;20.13;15.90;;;-15.30;74.60;-16.50;100064.00;;;;4958483;28;92014;-57
2021/12/11 03:50:46;;;;;;;19.85;15.00;;;-15.30;74.70;-16.50;100065.00;;;;4959450;28;92260;-55
2021/12/11 03:53:15;;;;;;;20.50;16.27;;;-15.20;75.00;-16.50;100056.00;;;;4957425;28;94940;-58
2021/12/11 03:55:57;;;;;;;17.13;14.27;;;-15.20;74.70;-16.50;100057.00;;;;4959094;28;93468;-60
2021/12/11 03:58:24;;;;;;;20.35;15.65;;;-15.20;74.60;-16.40;100038.00;;;;4974152;28;92249;-59
2021/12/11 04:01:00;;;;;;;20.58;16.38;;;-15.20;74.50;-16.40;100043.00;;;;4959065;28;92507;-60
2021/12/11 04:03:31;;;;;;;19.17;16.13;;;-15.20;74.70;-16.40;100048.00;;;;4958651;28;93479;-59
2021/12/11 04:05:59;;;;;;;;;;;-15.10;74.70;-16.40;100056.00;;;;4959140;28;95060;-61
2021/12/11 04:08:30;;;;;;;19.27;15.73;;;-15.20;74.70;-16.40;100050.00;;;;4975325;28;92502;-59
2021/12/11 04:10:57;;;;;;;19.52;15.80;;;-15.10;74.80;-16.40;100038.00;;;;4957542;28;92347;-56
2021/12/11 04:13:24;;;;;;;21.25;17.30;;;-15.10;74.80;-16.40;100046.00;;;;4958724;28;93704;-57
2021/12/11 04:15:53;;;;;;;21.50;18.45;;;-15.10;74.80;-16.40;100041.00;;;;4963575;28;92239;-59
2021/12/11 04:18:20;;;;;;;21.55;17.67;;;-15.10;74.80;-16.40;100036.00;;;;4978130;28;92375;-61
2021/12/11 04:20:49;;;;;;;23.38;18.63;;;-15.10;74.70;-16.40;100046.00;;;;4978012;28;91208;-63
2021/12/11 04:23:18;;;;;;;21.60;18.08;;;-15.10;74.60;-16.40;100036.00;;;;4973699;28;92713;-58
2021/12/11 04:25:49;;;;;;;19.08;16.80;;;-15.10;74.50;-16.40;100045.00;;;;4958440;28;92648;-57
2021/12/11 04:28:18;;;;;;;21.40;17.48;;;-15.10;74.60;-16.40;100055.00;;;;4957935;28;93465;-56
2021/12/11 04:30:48;;;;;;;20.40;16.80;;;-15.10;74.40;-16.40;100047.00;;;;4958613;28;92388;-57
2021/12/11 04:33:15;;;;;;;21.70;16.58;;;-15.10;74.30;-16.40;100052.00;;;;4957990;28;92528;-58
2021/12/11 04:35:43;;;;;;;18.17;15.32;;;-15.20;74.10;-16.40;100048.00;;;;4958605;28;92510;-52
2021/12/11 04:38:14;;;;;;;17.73;14.20;;;-15.10;74.10;-16.40;100050.00;;;;4958083;28;92537;-57
2021/12/11 04:40:48;;;;;;;16.48;14.18;;;-15.20;74.10;-16.50;100041.00;;;;4973622;28;92005;-60
2021/12/11 04:43:19;;;;;;;17.10;14.00;;;-15.20;73.90;-16.50;100033.00;;;;4958293;28;92749;-60
2021/12/11 04:46:01;;;;;;;16.40;14.10;;;-15.20;73.30;-16.50;100039.00;;;;4958437;28;92354;-62
2021/12/11 04:51:30;;;;;;;15.52;12.95;;;-15.20;73.00;-16.50;100045.00;;;;4958285;28;92418;-61
2021/12/11 05:10:22;;;;;;;16.88;12.27;;;-15.40;73.50;-16.70;100050.00;;;;4960072;28;92032;-60
2021/12/11 05:12:53;;;;;;;;;;;-15.40;72.80;-16.70;100046.00;;;;4958436;28;91629;-61
2021/12/11 05:15:28;;;;;;;20.55;14.73;;;-15.40;73.30;-16.70;100036.00;;;;4960085;28;92602;-61
2021/12/11 05:17:58;;;;;;;19.05;15.57;;;-15.50;73.50;-16.80;100034.00;;;;4974338;28;92292;-61
2021/12/11 05:20:29;;;;;;;18.23;14.43;;;-15.50;73.80;-16.80;100023.00;;;;4957341;28;93419;-62
2021/12/11 05:22:56;;;;;;;17.77;14.55;;;-15.50;74.20;-16.80;100031.00;;;;4959249;28;92240;-61
2021/12/11 05:25:22;;;;;;;20.02;15.23;;;-15.50;74.10;-16.80;100020.00;;;;4977511;28;91892;-62
2021/12/11 05:27:50;;;;;;;20.50;14.98;;;-15.50;74.30;-16.80;100036.00;;;;4972810;28;92469;-62
2021/12/11 05:30:38;;;;;;;19.20;14.00;;;-15.50;74.40;-16.80;100032.00;;;;4957823;28;92091;-61
2021/12/11 05:33:05;;;;;;;17.70;13.38;;;-15.50;74.20;-16.80;100043.00;;;;4960274;28;92019;-62
2021/12/11 05:35:34;;;;;;;18.23;13.75;;;-15.50;74.00;-16.80;100033.00;;;;4960505;28;93083;-62
2021/12/11 05:38:03;;;;;;;11.68;6.15;;;-15.50;74.10;-16.80;100037.00;;;;4960870;28;92646;-59
2021/12/11 05:40:30;;;;;;;16.05;12.75;;;-15.50;74.20;-16.80;100042.00;;;;4961395;28;92009;-60
2021/12/11 05:42:57;;;;;;;16.98;12.55;;;-15.50;73.90;-16.80;100035.00;;;;4960476;28;92468;-59
2021/12/11 05:45:24;;;;;;;15.15;12.95;;;-15.50;73.80;-16.80;100033.00;;;;4959989;28;93354;-61
2021/12/11 05:47:52;;;;;;;18.35;14.05;;;-15.50;73.60;-16.80;100044.00;;;;4960649;28;94410;-57
2021/12/11 05:50:35;;;;;;;15.07;12.90;;;-15.50;72.80;-16.80;100050.00;;;;4960202;28;92009;-60
2021/12/11 05:53:03;;;;;;;16.52;13.05;;;-15.50;72.60;-16.80;100040.00;;;;4944200;28;92538;-60
2021/12/11 05:55:31;;;;;;;19.33;14.30;;;-15.50;72.70;-16.90;100054.00;;;;4960188;28;93088;-56
2021/12/11 05:58:02;;;;;;;15.20;13.32;;;-15.60;72.60;-16.90;100050.00;;;;4975655;28;92570;-59
2021/12/11 06:00:33;;;;;;;16.85;12.98;;;-15.60;72.60;-16.90;100055.00;;;;4960673;28;92039;-59
2021/12/11 06:03:03;;;;;;;16.48;11.95;;;-15.60;72.50;-16.90;100053.00;;;;4961000;28;91680;-58
2021/12/11 06:05:30;;;;;;;14.93;12.45;;;-15.60;72.50;-16.90;100055.00;;;;4960201;28;92775;-61
2021/12/11 06:07:57;;;;;;;16.45;13.85;;;-15.50;72.70;-16.90;100060.00;;;;4975083;28;95188;-55
2021/12/11 06:10:25;;;;;;;15.60;13.15;;;-15.60;72.60;-16.90;100064.00;;;;4959840;28;93247;-57
2021/12/11 06:12:57;;;;;;;16.30;12.45;;;-15.60;72.60;-16.90;100054.00;;;;4960443;28;92016;-60
2021/12/11 06:15:23;;;;;;;17.70;12.80;;;-15.60;72.60;-16.80;100052.00;;;;4961658;28;92514;-58
2021/12/11 06:17:49;;;;;;;16.70;12.82;;;-15.60;72.60;-16.80;100067.00;;;;4972264;28;92211;-60
2021/12/11 06:20:23;;;;;;;16.35;13.43;;;-15.50;72.70;-16.80;100069.00;;;;4960206;28;92721;-61
2021/12/11 06:22:50;;;;;;;15.85;12.52;;;-15.50;72.70;-16.80;100062.00;;;;4963258;28;92458;-59
2021/12/11 06:25:22;;;;;;;16.17;12.50;;;-15.40;72.80;-16.70;100073.00;;;;4979149;28;93799;-59
2021/12/11 06:27:49;;;;;;;17.98;12.60;;;-15.40;72.80;-16.70;100083.00;;;;4979979;28;92384;-59
2021/12/11 06:30:17;;;;;;;18.55;13.82;;;-15.40;72.70;-16.70;100068.00;;;;4978869;28;92007;-56
2021/12/11 06:32:45;;;;;;;20.98;12.50;;;-15.40;72.80;-16.70;100064.00;;;;4978868;28;92568;-59
2021/12/11 06:35:40;;;;;;;17.83;12.93;;;-15.40;72.70;-16.70;100074.00;;;;4978335;28;94607;-59
2021/12/11 06:38:09;;;;;;;16.95;12.25;;;-15.40;72.30;-16.70;100078.00;;;;4978922;28;93301;-55
2021/12/11 06:40:37;;;;;;;17.20;12.75;;;-15.40;72.30;-16.60;100067.00;;;;4979487;28;92026;-54
2021/12/11 06:43:04;;;;;;;14.93;11.88;;;-15.30;72.60;-16.60;100067.00;;;;4978405;28;92086;-58
2021/12/11 06:45:31;;;;;;;16.23;12.98;;;-15.30;72.50;-16.60;100051.00;;;;4977612;28;93149;-56
2021/12/11 06:47:58;;;;;;;16.60;13.27;;;-15.30;72.30;-16.60;100056.00;;;;4978544;28;92981;-58
2021/12/11 06:50:25;;;;;;;15.27;12.10;;;-15.30;71.90;-16.50;100066.00;;;;4979209;28;91900;-57
2021/12/11 06:52:52;;;;;;;16.17;12.15;;;-15.30;71.80;-16.50;100057.00;;;;4979275;28;91237;-57
2021/12/11 06:55:20;;;;;;;17.25;13.98;;;-15.20;71.90;-16.50;100063.00;;;;4977519;28;93854;-58
2021/12/11 06:57:48;;;;;;;18.92;14.18;;;-15.20;71.80;-16.50;100050.00;;;;4974266;28;92910;-57
2021/12/11 07:00:18;;;;;;;17.95;14.63;;;-15.20;71.90;-16.40;100045.00;;;;4959459;28;93374;-54
2021/12/11 07:02:45;;;;;;;20.65;15.05;;;-15.20;71.90;-16.40;100043.00;;;;4959201;28;92244;-56
2021/12/11 07:05:12;;;;;;;17.55;15.40;;;-15.10;71.80;-16.40;100052.00;;;;4959793;28;92776;-56
2021/12/11 07:07:41;;;;;;;17.67;14.88;;;-15.10;71.70;-16.40;100044.00;;;;4958976;28;93357;-57
2021/12/11 07:10:12;;;;;;;18.90;15.45;;;-15.10;71.60;-16.30;100059.00;;;;4959426;28;92028;-54
2021/12/11 07:12:39;;;;;;;21.25;17.17;;;-15.10;71.50;-16.40;100059.00;;;;4959821;28;91892;-59
2021/12/11 07:15:09;;;;;;;21.77;16.55;;;-15.10;71.50;-16.30;100056.00;;;;4973930;28;93098;-60
2021/12/11 07:17:38;;;;;;;18.73;15.80;;;-15.10;71.60;-16.30;100066.00;;;;4958322;28;92941;-59
2021/12/11 07:20:07;;;;;;;21.48;16.30;;;-15.00;71.60;-16.20;100070.00;;;;4959002;28;91889;-61
2021/12/11 07:22:34;;;;;;;21.15;16.63;;;-15.00;71.60;-16.20;100074.00;;;;4963966;28;92810;-60
2021/12/11 07:25:30;;;;;;;23.55;16.92;;;-15.00;71.60;-16.20;100069.00;;;;4959511;28;94762;-58
2021/12/11 07:28:03;;;;;;;19.90;16.20;;;-14.90;71.70;-16.10;100078.00;;;;4958679;28;92478;-60
2021/12/11 07:30:33;;;;;;;20.55;16.25;;;-14.90;71.60;-16.10;100078.00;;;;4959595;28;92354;-57
2021/12/11 07:33:01;;;;;;;17.52;15.63;;;-14.80;71.50;-16.10;100070.00;;;;4958881;28;91910;-58
2021/12/11 07:35:28;;;;;;;21.77;15.25;;;-14.80;71.40;-16.10;100066.00;;;;4958803;28;92769;-61
2021/12/11 07:37:55;;;;;;;19.42;15.90;;;-14.80;71.40;-16.00;100073.00;;;;4958299;28;92939;-61
2021/12/11 07:40:30;;;;;;;20.70;16.75;;;-14.80;71.40;-16.00;100080.00;;;;4959141;28;91979;-59
2021/12/11 07:42:57;;;;;;;22.08;17.52;;;-14.70;71.60;-15.90;100077.00;;;;4959433;28;91590;-58
2021/12/11 07:45:27;;;;;;;21.90;16.75;;;-14.70;71.50;-15.80;100081.00;;;;4958659;28;92856;-54
2021/12/11 07:47:55;;;;;;;24.67;16.90;;;-14.60;71.70;-15.80;100073.00;;;;4958554;28;92303;-59
2021/12/11 07:50:23;;;;;;;22.92;16.35;;;-14.60;71.50;-15.80;100075.00;;;;4958006;28;93620;-55
2021/12/11 07:52:49;;;;;;;24.38;18.10;;;-14.50;71.90;-15.70;100076.00;;;;4958970;28;91898;-58
2021/12/11 07:55:16;;;;;;;22.58;17.23;;;-14.50;71.70;-15.70;100090.00;;;;4958056;28;92480;-57
2021/12/11 07:57:44;;;;;;;22.98;18.30;;;-14.40;71.80;-15.60;100083.00;;;;4977504;28;92341;-57
2021/12/11 08:00:16;;;;;;;25.83;18.67;;;-14.40;71.70;-15.60;100085.00;;;;4977583;28;92494;-59
2021/12/11 08:02:43;;;;;;;27.55;19.02;;;-14.30;72.00;-15.50;100091.00;;;;4978224;28;91948;-61
2021/12/11 08:05:10;;;;;;;24.13;19.00;;;-14.30;71.80;-15.50;100080.00;;;;4977625;28;93681;-60
2021/12/11 08:07:37;;;;;;;25.38;19.75;;;-14.30;71.90;-15.40;100080.00;;;;4978214;28;93615;-62
2021/12/11 08:10:08;;;;;;;24.75;20.02;;;-14.20;71.90;-15.30;100080.00;;;;4977608;28;92495;-58
2021/12/11 08:12:34;;;;;;;23.75;20.60;;;-14.10;71.50;-15.30;100077.00;;;;4978512;28;91956;-58
2021/12/11 08:15:01;;;;;;;26.30;21.10;;;-14.10;71.30;-15.30;100080.00;;;;4977328;28;95071;-54
2021/12/11 08:17:29;;;;;;;26.73;20.05;;;-14.10;71.30;-15.20;100090.00;;;;4976164;28;96053;-58
2021/12/11 08:19:55;;;;;;;23.33;18.63;;;-14.10;71.30;-15.20;100083.00;;;;4978062;28;92455;-58
2021/12/11 08:22:21;;;;;;;24.80;20.88;;;-14.00;71.50;-15.10;100065.00;;;;4977506;28;92394;-62
2021/12/11 08:24:48;;;;;;;25.38;21.55;;;-13.90;71.50;-15.10;100052.00;;;;4976370;28;92696;-57
2021/12/11 08:27:21;;;;;;;25.73;20.67;;;-13.90;71.50;-15.10;100059.00;;;;4976230;28;92224;-58
2021/12/11 08:29:52;;;;;;;25.02;20.17;;;-13.80;71.60;-15.00;100061.00;;;;4983782;28;92272;-58
2021/12/11 08:32:21;;;;;;;24.58;20.60;;;-13.70;71.50;-14.90;100060.00;;;;4976876;28;91529;-57
2021/12/11 08:34:49;;;;;;;25.02;20.08;;;-13.60;71.10;-14.80;100073.00;;;;4972052;28;94014;-55
2021/12/11 08:37:19;;;;;;;25.73;20.90;;;-13.60;70.70;-14.80;100060.00;;;;4957440;28;92449;-57
2021/12/11 08:39:45;;;;;;;29.38;21.48;;;-13.60;70.90;-14.80;100057.00;;;;4957872;28;93414;-57
2021/12/11 08:42:18;;;;;;;26.63;20.20;;;-13.60;71.00;-14.70;100050.00;;;;4957767;28;92008;-60
2021/12/11 08:44:51;;;;;;;25.77;20.77;;;-13.50;71.10;-14.60;100042.00;;;;4958035;28;92574;-56
2021/12/11 08:47:21;;;;;;;25.17;19.27;;;-13.40;71.20;-14.50;100045.00;;;;4957888;28;92732;-55
2021/12/11 08:49:50;;;;;;;21.73;18.05;;;-13.40;70.60;-14.40;100051.00;;;;4957922;28;92108;-57
2021/12/11 08:52:33;;;;;;;25.33;20.17;;;-13.20;70.80;-14.30;100036.00;;;;4958250;28;92017;-56
2021/12/11 08:55:07;;;;;;;22.63;17.58;;;-13.10;70.80;-14.20;100047.00;;;;4975645;28;92869;-55
2021/12/11 08:57:39;;;;;;;20.80;17.70;;;-13.00;70.50;-14.10;100026.00;;;;4977244;28;93407;-64
2021/12/11 09:00:25;;;;;;;22.23;18.42;;;-12.90;70.10;-14.00;100038.00;;;;4977419;28;92298;-62
2021/12/11 09:03:23;;;;;;;21.67;18.05;;;-12.80;70.00;-13.90;100035.00;;;;4977530;28;92148;-63
2021/12/11 09:05:57;;;;;;;24.00;19.48;;;-12.80;69.60;-13.90;100045.00;;;;4975361;28;93636;-54
2021/12/11 09:08:36;;;;;;;25.35;19.02;;;-12.70;69.40;-13.90;100039.00;;;;4979322;28;93230;-55
2021/12/11 09:11:11;;;;;;;24.65;20.65;;;-12.70;69.10;-13.90;100038.00;;;;4979970;28;92425;-57
2021/12/11 09:13:49;;;;;;;23.80;19.38;;;-12.70;68.80;-13.80;100047.00;;;;4981100;28;91963;-58
2021/12/11 09:16:17;;;;;;;24.25;19.10;;;-12.70;69.10;-13.90;100029.00;;;;4980044;28;92826;-57
2021/12/11 09:18:53;;;;;;;23.20;18.35;;;-12.70;69.30;-13.80;100037.00;;;;4979656;28;92776;-58
2021/12/11 09:21:35;;;;;;;23.85;19.40;;;-12.60;69.20;-13.80;100042.00;;;;4996257;28;92046;-64
2021/12/11 09:24:13;;;;;;;24.05;19.75;;;-12.70;68.90;-13.70;100050.00;;;;4974438;28;91274;-62
2021/12/11 09:27:06;;;;;;;22.80;19.10;;;-12.60;69.10;-13.70;100030.00;;;;4980060;28;94439;-64
2021/12/11 09:29:42;;;;;;;26.23;19.90;;;-12.60;68.60;-13.70;100032.00;;;;4978701;28;92372;-63
2021/12/11 09:32:30;;;;;;;21.65;18.35;;;-12.60;68.40;-13.70;100026.00;;;;4980096;28;93286;-64
2021/12/11 09:35:11;;;;;;;22.08;17.27;;;-12.60;68.80;-13.70;100037.00;;;;4980186;28;92456;-64
2021/12/11 09:37:40;;;;;;;20.80;17.65;;;-12.50;69.20;-13.60;100029.00;;;;4979902;28;93863;-66
2021/12/11 09:40:36;;;;;;;21.60;16.55;;;-12.40;69.20;-13.50;100015.00;;;;4980143;28;93785;-63
2021/12/11 09:43:02;;;;;;;21.67;17.98;;;-12.40;68.90;-13.50;100016.00;;;;4967896;28;91978;-62
2021/12/11 09:45:35;;;;;;;22.40;16.88;;;-12.40;68.60;-13.50;100013.00;;;;4979634;28;92154;-62
2021/12/11 09:48:09;;;;;;;20.65;15.40;;;-12.30;68.60;-13.40;100020.00;;;;4979830;28;94103;-64
2021/12/11 09:50:52;;;;;;;21.10;16.38;;;-12.30;68.30;-13.40;100020.00;;;;4980076;28;92124;-63
2021/12/11 09:53:25;;;;;;;19.63;16.27;;;-12.30;68.20;-13.30;100028.00;;;;4980186;28;92058;-59
2021/12/11 09:55:52;;;;;;;19.40;16.85;;;-12.20;68.50;-13.30;100012.00;;;;4973550;28;93241;-57
2021/12/11 09:58:27;;;;;;;16.90;14.80;;;-12.20;68.50;-13.30;100021.00;;;;4958363;28;94862;-57
2021/12/11 10:01:10;;;;;;;18.40;15.13;;;-12.20;68.80;-13.30;100019.00;;;;4960263;28;93302;-57
2021/12/11 10:03:48;;;;;;;20.83;16.48;;;-12.20;68.70;-13.30;100024.00;;;;4959796;28;92428;-60
2021/12/11 10:09:31;;;;;;;20.83;16.88;;;-12.10;68.40;-13.20;100006.00;;;;4969570;28;93750;-58
2021/12/11 10:12:14;;;;;;;21.10;16.70;;;-12.10;68.00;-13.20;99995.00;;;;4979883;28;92413;-59
2021/12/11 10:14:51;;;;;;;21.70;16.85;;;-12.10;68.20;-13.20;100001.00;;;;4976969;28;92267;-54
2021/12/11 10:17:27;;;;;;;19.23;17.05;;;-12.20;68.10;-13.20;100006.00;;;;4966882;28;91286;-57
2021/12/11 10:19:58;;;;;;;20.95;17.58;;;-12.10;68.60;-13.20;100004.00;;;;4977757;28;92639;-56
2021/12/11 10:22:33;;;;;;;19.50;16.15;;;-12.10;68.50;-13.20;99999.00;;;;4974923;28;92263;-57
2021/12/11 10:25:00;;;;;;;20.00;15.63;;;-12.10;68.10;-13.20;100009.00;;;;4959008;28;93245;-57
2021/12/11 10:27:30;;;;;;;20.77;15.55;;;-12.10;68.40;-13.10;100002.00;;;;4959871;28;92414;-57
2021/12/11 10:29:59;;;;;;;18.27;16.13;;;-12.00;68.10;-13.10;100006.00;;;;4959716;28;93750;-57
2021/12/11 10:32:30;;;;;;;19.48;16.73;;;-12.10;67.90;-13.20;100007.00;;;;4959343;28;93586;-59
2021/12/11 10:35:02;;;;;;;;;;;-12.10;67.80;-13.20;100010.00;;;;4959755;28;92094;-57
2021/12/11 10:37:36;;;;;;;18.40;15.07;;;-12.10;68.00;-13.20;99998.00;;;;4976106;28;91992;-57
2021/12/11 10:40:12;;;;;;;20.58;16.10;;;-12.10;68.40;-13.20;100006.00;;;;4958906;28;93946;-57
2021/12/11 10:42:40;;;;;;;20.50;16.75;;;-12.10;68.30;-13.20;100004.00;;;;4958725;28;93536;-59
2021/12/11 10:45:12;;;;;;;21.95;18.63;;;-12.10;68.10;-13.20;99990.00;;;;4959788;28;92398;-58
2021/12/11 10:47:48;;;;;;;21.15;16.70;;;-12.10;68.10;-13.20;100001.00;;;;4959918;28;92492;-55
2021/12/11 10:50:29;;;;;;;21.75;18.17;;;-12.10;68.60;-13.20;99994.00;;;;4973102;28;94609;-57
2021/12/11 10:52:56;;;;;;;24.48;18.05;;;-12.10;68.60;-13.20;99994.00;;;;4959221;28;93358;-59
2021/12/11 10:55:29;;;;;;;21.55;15.95;;;-12.10;68.90;-13.20;99973.00;;;;4959190;28;92031;-59
2021/12/11 10:58:00;;;;;;;20.38;16.80;;;-12.10;68.80;-13.20;99990.00;;;;4958817;28;92139;-55
2021/12/11 11:00:32;;;;;;;;;;;-12.10;68.60;-13.20;99990.00;;;;4959740;28;92474;-58
2021/12/11 11:02:58;;;;;;;19.90;16.48;;;-12.10;68.90;-13.20;99983.00;;;;4960150;28;92910;-57
2021/12/11 11:05:29;;;;;;;18.65;15.55;;;-12.10;68.90;-13.20;99981.00;;;;4958878;28;91929;-58
2021/12/11 11:07:56;;;;;;;17.38;14.02;;;-12.10;69.10;-13.20;100003.00;;;;4959684;28;91242;-54
2021/12/11 11:10:31;;;;;;;18.70;14.43;;;-12.10;69.00;-13.20;99995.00;;;;4963834;28;94328;-58
2021/12/11 11:13:07;;;;;;;20.50;16.23;;;-12.10;68.90;-13.20;99985.00;;;;4958864;28;92643;-55